sensor_id;sensor_type;location;lat;lon;timestamp;temperature;humidity
51567;DHT22;37657;53.182;5.638;2023-12-22T00:01:32;7.90;99.90
51567;DHT22;37657;53.182;5.638;2023-12-22T00:03:57;7.70;99.90
51567;DHT22;37657;53.182;5.638;2023-12-22T00:06:24;7.30;99.90
51567;DHT22;37657;53.182;5.638;2023-12-22T00:08:49;7.10;99.90
51567;DHT22;37657;53.182;5.638;2023-12-22T00:11:16;7.10;99.90
51567;DHT22;37657;53.182;5.638;2023-12-22T00:13:41;7.10;99.90
51567;DHT22;37657;53.182;5.638;2023-12-22T00:16:07;7.30;99.90
51567;DHT22;37657;53.182;5.638;2023-12-22T00:18:33;7.40;99.90
51567;DHT22;37657;53.182;5.638;2023-12-22T00:20:59;7.50;99.90
51567;DHT22;37657;53.182;5.638;2023-12-22T00:23:24;7.50;99.90
51567;DHT22;37657;53.182;5.638;2023-12-22T00:25:51;7.50;99.90
51567;DHT22;37657;53.182;5.638;2023-12-22T00:28:16;7.60;99.90
51567;DHT22;37657;53.182;5.638;2023-12-22T00:30:42;7.70;99.90
51567;DHT22;37657;53.182;5.638;2023-12-22T00:33:08;7.80;99.90
51567;DHT22;37657;53.182;5.638;2023-12-22T00:35:33;7.90;99.90
51567;DHT22;37657;53.182;5.638;2023-12-22T00:38:01;7.90;99.90
51567;DHT22;37657;53.182;5.638;2023-12-22T00:40:26;7.80;99.90
51567;DHT22;37657;53.182;5.638;2023-12-22T00:42:52;7.90;99.90
51567;DHT22;37657;53.182;5.638;2023-12-22T00:45:18;7.90;99.90
51567;DHT22;37657;53.182;5.638;2023-12-22T00:47:43;7.80;99.90
51567;DHT22;37657;53.182;5.638;2023-12-22T00:50:09;7.90;99.90
51567;DHT22;37657;53.182;5.638;2023-12-22T00:52:35;8.00;99.90
51567;DHT22;37657;53.182;5.638;2023-12-22T00:55:00;8.20;99.90
51567;DHT22;37657;53.182;5.638;2023-12-22T00:57:26;8.20;99.90
51567;DHT22;37657;53.182;5.638;2023-12-22T00:59:52;8.20;99.90
51567;DHT22;37657;53.182;5.638;2023-12-22T01:02:18;8.10;99.90
51567;DHT22;37657;53.182;5.638;2023-12-22T01:04:50;7.90;99.90
51567;DHT22;37657;53.182;5.638;2023-12-22T01:07:15;7.90;99.90
51567;DHT22;37657;53.182;5.638;2023-12-22T01:09:42;7.80;99.90
51567;DHT22;37657;53.182;5.638;2023-12-22T01:12:08;7.70;99.90
51567;DHT22;37657;53.182;5.638;2023-12-22T01:14:36;7.80;99.90
51567;DHT22;37657;53.182;5.638;2023-12-22T01:17:01;7.70;99.90
51567;DHT22;37657;53.182;5.638;2023-12-22T01:19:28;7.70;99.90
51567;DHT22;37657;53.182;5.638;2023-12-22T01:21:53;7.70;99.90
51567;DHT22;37657;53.182;5.638;2023-12-22T01:24:19;7.70;99.90
51567;DHT22;37657;53.182;5.638;2023-12-22T01:26:45;7.60;99.90
51567;DHT22;37657;53.182;5.638;2023-12-22T01:29:10;7.70;99.90
51567;DHT22;37657;53.182;5.638;2023-12-22T01:31:36;7.60;99.90
51567;DHT22;37657;53.182;5.638;2023-12-22T01:34:02;7.70;99.90
51567;DHT22;37657;53.182;5.638;2023-12-22T01:36:27;7.70;99.90
51567;DHT22;37657;53.182;5.638;2023-12-22T01:38:53;7.80;99.90
51567;DHT22;37657;53.182;5.638;2023-12-22T01:41:19;7.80;99.90
51567;DHT22;37657;53.182;5.638;2023-12-22T01:43:45;7.80;99.90
51567;DHT22;37657;53.182;5.638;2023-12-22T01:46:11;8.00;99.90
51567;DHT22;37657;53.182;5.638;2023-12-22T01:48:38;7.90;99.90
51567;DHT22;37657;53.182;5.638;2023-12-22T01:51:04;8.00;99.90
51567;DHT22;37657;53.182;5.638;2023-12-22T01:53:32;7.90;99.90
51567;DHT22;37657;53.182;5.638;2023-12-22T01:55:59;7.40;99.90
51567;DHT22;37657;53.182;5.638;2023-12-22T01:58:26;7.00;99.90
51567;DHT22;37657;53.182;5.638;2023-12-22T02:00:56;6.90;99.90
51567;DHT22;37657;53.182;5.638;2023-12-22T02:03:22;6.80;99.90
51567;DHT22;37657;53.182;5.638;2023-12-22T02:05:48;7.00;99.90
51567;DHT22;37657;53.182;5.638;2023-12-22T02:08:17;7.20;99.90
51567;DHT22;37657;53.182;5.638;2023-12-22T02:10:43;7.30;99.90
51567;DHT22;37657;53.182;5.638;2023-12-22T02:13:10;7.30;99.90
51567;DHT22;37657;53.182;5.638;2023-12-22T02:15:36;7.30;99.90
51567;DHT22;37657;53.182;5.638;2023-12-22T02:18:09;7.50;99.90
51567;DHT22;37657;53.182;5.638;2023-12-22T02:20:36;7.50;99.90
51567;DHT22;37657;53.182;5.638;2023-12-22T02:23:03;7.40;99.90
51567;DHT22;37657;53.182;5.638;2023-12-22T02:25:28;7.20;99.90
51567;DHT22;37657;53.182;5.638;2023-12-22T02:28:07;7.00;99.90
51567;DHT22;37657;53.182;5.638;2023-12-22T02:33:06;6.90;99.90
51567;DHT22;37657;53.182;5.638;2023-12-22T02:35:37;7.00;99.90
51567;DHT22;37657;53.182;5.638;2023-12-22T02:38:05;7.00;99.90
51567;DHT22;37657;53.182;5.638;2023-12-22T02:40:31;6.90;99.90
51567;DHT22;37657;53.182;5.638;2023-12-22T02:42:57;6.90;99.90
51567;DHT22;37657;53.182;5.638;2023-12-22T02:45:23;6.80;99.90
51567;DHT22;37657;53.182;5.638;2023-12-22T02:47:49;6.90;99.90
51567;DHT22;37657;53.182;5.638;2023-12-22T02:50:16;6.80;99.90
51567;DHT22;37657;53.182;5.638;2023-12-22T02:52:42;6.70;99.90
51567;DHT22;37657;53.182;5.638;2023-12-22T02:55:08;6.70;99.90
51567;DHT22;37657;53.182;5.638;2023-12-22T02:57:33;6.70;99.90
51567;DHT22;37657;53.182;5.638;2023-12-22T02:59:59;6.70;99.90
51567;DHT22;37657;53.182;5.638;2023-12-22T03:02:25;6.70;99.90
51567;DHT22;37657;53.182;5.638;2023-12-22T03:04:51;6.80;99.90
51567;DHT22;37657;53.182;5.638;2023-12-22T03:07:16;6.90;99.90
51567;DHT22;37657;53.182;5.638;2023-12-22T03:09:43;6.90;99.90
51567;DHT22;37657;53.182;5.638;2023-12-22T03:12:09;6.90;99.90
51567;DHT22;37657;53.182;5.638;2023-12-22T03:14:35;6.90;99.90
51567;DHT22;37657;53.182;5.638;2023-12-22T03:17:05;7.10;99.90
51567;DHT22;37657;53.182;5.638;2023-12-22T03:19:31;7.20;99.90
51567;DHT22;37657;53.182;5.638;2023-12-22T03:21:57;7.20;99.90
51567;DHT22;37657;53.182;5.638;2023-12-22T03:24:23;7.10;99.90
51567;DHT22;37657;53.182;5.638;2023-12-22T03:26:49;7.00;99.90
51567;DHT22;37657;53.182;5.638;2023-12-22T03:29:15;7.10;99.90
51567;DHT22;37657;53.182;5.638;2023-12-22T03:31:41;7.10;99.90
51567;DHT22;37657;53.182;5.638;2023-12-22T03:34:07;7.20;99.90
51567;DHT22;37657;53.182;5.638;2023-12-22T03:36:33;7.20;99.90
51567;DHT22;37657;53.182;5.638;2023-12-22T03:38:58;7.20;99.90
51567;DHT22;37657;53.182;5.638;2023-12-22T03:41:24;7.30;99.90
51567;DHT22;37657;53.182;5.638;2023-12-22T03:43:50;7.20;99.90
51567;DHT22;37657;53.182;5.638;2023-12-22T03:46:15;7.20;99.90
51567;DHT22;37657;53.182;5.638;2023-12-22T03:48:41;7.30;99.90
51567;DHT22;37657;53.182;5.638;2023-12-22T03:51:07;7.20;99.90
51567;DHT22;37657;53.182;5.638;2023-12-22T03:53:33;7.40;99.90
51567;DHT22;37657;53.182;5.638;2023-12-22T03:55:58;7.40;99.90
51567;DHT22;37657;53.182;5.638;2023-12-22T03:58:24;7.30;99.90
51567;DHT22;37657;53.182;5.638;2023-12-22T04:00:51;7.30;99.90
51567;DHT22;37657;53.182;5.638;2023-12-22T04:03:17;7.40;99.90
51567;DHT22;37657;53.182;5.638;2023-12-22T04:05:43;7.40;99.90
51567;DHT22;37657;53.182;5.638;2023-12-22T04:08:08;7.30;99.90
51567;DHT22;37657;53.182;5.638;2023-12-22T04:10:34;7.40;99.90
51567;DHT22;37657;53.182;5.638;2023-12-22T04:12:59;7.40;99.90
51567;DHT22;37657;53.182;5.638;2023-12-22T04:15:25;7.40;99.90
51567;DHT22;37657;53.182;5.638;2023-12-22T04:17:51;7.50;99.90
51567;DHT22;37657;53.182;5.638;2023-12-22T04:20:16;7.60;99.90
51567;DHT22;37657;53.182;5.638;2023-12-22T04:22:42;7.50;99.90
51567;DHT22;37657;53.182;5.638;2023-12-22T04:25:08;7.60;99.90
51567;DHT22;37657;53.182;5.638;2023-12-22T04:27:34;7.60;99.90
51567;DHT22;37657;53.182;5.638;2023-12-22T04:30:00;7.50;99.90
51567;DHT22;37657;53.182;5.638;2023-12-22T04:32:26;7.50;99.90
51567;DHT22;37657;53.182;5.638;2023-12-22T04:34:51;7.50;99.90
51567;DHT22;37657;53.182;5.638;2023-12-22T04:37:17;7.50;99.90
51567;DHT22;37657;53.182;5.638;2023-12-22T04:39:43;7.50;99.90
51567;DHT22;37657;53.182;5.638;2023-12-22T04:42:08;7.60;99.90
51567;DHT22;37657;53.182;5.638;2023-12-22T04:44:34;7.50;99.90
51567;DHT22;37657;53.182;5.638;2023-12-22T04:47:00;7.60;99.90
51567;DHT22;37657;53.182;5.638;2023-12-22T04:49:26;7.60;99.90
51567;DHT22;37657;53.182;5.638;2023-12-22T04:51:51;7.60;99.90
51567;DHT22;37657;53.182;5.638;2023-12-22T04:54:17;7.60;99.90
51567;DHT22;37657;53.182;5.638;2023-12-22T04:56:42;7.60;99.90
51567;DHT22;37657;53.182;5.638;2023-12-22T04:59:08;7.60;99.90
51567;DHT22;37657;53.182;5.638;2023-12-22T05:01:34;7.60;99.90
51567;DHT22;37657;53.182;5.638;2023-12-22T05:04:00;7.60;99.90
51567;DHT22;37657;53.182;5.638;2023-12-22T05:06:27;7.60;99.90
51567;DHT22;37657;53.182;5.638;2023-12-22T05:08:54;7.60;99.90
51567;DHT22;37657;53.182;5.638;2023-12-22T05:11:20;7.70;99.90
51567;DHT22;37657;53.182;5.638;2023-12-22T05:13:46;7.60;99.90
51567;DHT22;37657;53.182;5.638;2023-12-22T05:16:12;7.70;99.90
51567;DHT22;37657;53.182;5.638;2023-12-22T05:18:37;7.70;99.90
51567;DHT22;37657;53.182;5.638;2023-12-22T05:21:04;7.80;99.90
51567;DHT22;37657;53.182;5.638;2023-12-22T05:23:29;7.70;99.90
51567;DHT22;37657;53.182;5.638;2023-12-22T05:25:55;7.60;99.90
51567;DHT22;37657;53.182;5.638;2023-12-22T05:28:21;7.60;99.90
51567;DHT22;37657;53.182;5.638;2023-12-22T05:30:46;7.80;99.90
51567;DHT22;37657;53.182;5.638;2023-12-22T05:33:12;7.70;99.90
51567;DHT22;37657;53.182;5.638;2023-12-22T05:35:38;7.80;99.90
51567;DHT22;37657;53.182;5.638;2023-12-22T05:38:04;7.70;99.90
51567;DHT22;37657;53.182;5.638;2023-12-22T05:40:31;7.70;99.90
51567;DHT22;37657;53.182;5.638;2023-12-22T05:42:57;7.70;99.90
51567;DHT22;37657;53.182;5.638;2023-12-22T05:45:22;7.70;99.90
51567;DHT22;37657;53.182;5.638;2023-12-22T05:47:50;7.60;99.90
51567;DHT22;37657;53.182;5.638;2023-12-22T05:50:16;7.70;99.90
51567;DHT22;37657;53.182;5.638;2023-12-22T05:52:42;7.70;99.90
51567;DHT22;37657;53.182;5.638;2023-12-22T05:55:10;7.70;99.90
51567;DHT22;37657;53.182;5.638;2023-12-22T05:57:35;7.70;99.90
51567;DHT22;37657;53.182;5.638;2023-12-22T06:00:01;7.70;99.90
51567;DHT22;37657;53.182;5.638;2023-12-22T06:02:30;7.70;99.90
51567;DHT22;37657;53.182;5.638;2023-12-22T06:04:55;7.70;99.90
51567;DHT22;37657;53.182;5.638;2023-12-22T06:07:21;7.70;99.90
51567;DHT22;37657;53.182;5.638;2023-12-22T06:09:46;7.70;99.90
51567;DHT22;37657;53.182;5.638;2023-12-22T06:12:12;7.70;99.90
51567;DHT22;37657;53.182;5.638;2023-12-22T06:14:38;7.70;99.90
51567;DHT22;37657;53.182;5.638;2023-12-22T06:17:04;7.80;99.90
51567;DHT22;37657;53.182;5.638;2023-12-22T06:19:29;7.70;99.90
51567;DHT22;37657;53.182;5.638;2023-12-22T06:21:56;7.70;99.90
51567;DHT22;37657;53.182;5.638;2023-12-22T06:24:23;7.70;99.90
51567;DHT22;37657;53.182;5.638;2023-12-22T06:26:49;7.70;99.90
51567;DHT22;37657;53.182;5.638;2023-12-22T06:29:14;7.90;99.90
51567;DHT22;37657;53.182;5.638;2023-12-22T06:31:41;7.70;99.90
51567;DHT22;37657;53.182;5.638;2023-12-22T06:34:06;7.70;99.90
51567;DHT22;37657;53.182;5.638;2023-12-22T06:36:32;7.70;99.90
51567;DHT22;37657;53.182;5.638;2023-12-22T06:38:58;7.70;99.90
51567;DHT22;37657;53.182;5.638;2023-12-22T06:41:28;7.60;99.90
51567;DHT22;37657;53.182;5.638;2023-12-22T06:43:55;8.00;99.90
51567;DHT22;37657;53.182;5.638;2023-12-22T06:46:22;7.70;99.90
51567;DHT22;37657;53.182;5.638;2023-12-22T06:48:52;7.70;99.90
51567;DHT22;37657;53.182;5.638;2023-12-22T06:51:29;7.70;99.90
51567;DHT22;37657;53.182;5.638;2023-12-22T06:54:00;7.60;99.90
51567;DHT22;37657;53.182;5.638;2023-12-22T06:56:31;7.70;99.90
51567;DHT22;37657;53.182;5.638;2023-12-22T06:58:57;7.70;99.90
51567;DHT22;37657;53.182;5.638;2023-12-22T07:01:27;7.70;99.90
51567;DHT22;37657;53.182;5.638;2023-12-22T07:03:53;7.90;99.90
51567;DHT22;37657;53.182;5.638;2023-12-22T07:06:20;7.70;99.90
51567;DHT22;37657;53.182;5.638;2023-12-22T07:11:46;7.70;99.90
51567;DHT22;37657;53.182;5.638;2023-12-22T07:14:11;7.70;99.90
51567;DHT22;37657;53.182;5.638;2023-12-22T07:16:37;7.60;99.90
51567;DHT22;37657;53.182;5.638;2023-12-22T07:19:04;7.70;99.90
51567;DHT22;37657;53.182;5.638;2023-12-22T07:21:30;7.60;99.90
51567;DHT22;37657;53.182;5.638;2023-12-22T07:23:56;7.60;99.90
51567;DHT22;37657;53.182;5.638;2023-12-22T07:26:23;7.70;99.90
51567;DHT22;37657;53.182;5.638;2023-12-22T07:28:50;7.60;99.90
51567;DHT22;37657;53.182;5.638;2023-12-22T07:31:15;7.60;99.90
51567;DHT22;37657;53.182;5.638;2023-12-22T07:33:41;7.60;99.90
51567;DHT22;37657;53.182;5.638;2023-12-22T07:36:07;7.60;99.90
51567;DHT22;37657;53.182;5.638;2023-12-22T07:38:33;7.60;99.90
51567;DHT22;37657;53.182;5.638;2023-12-22T07:40:58;7.60;99.90
51567;DHT22;37657;53.182;5.638;2023-12-22T07:43:25;7.50;99.90
51567;DHT22;37657;53.182;5.638;2023-12-22T07:45:50;7.50;99.90
51567;DHT22;37657;53.182;5.638;2023-12-22T07:48:17;7.50;99.90
51567;DHT22;37657;53.182;5.638;2023-12-22T07:50:43;7.40;99.90
51567;DHT22;37657;53.182;5.638;2023-12-22T07:53:08;7.40;99.90
51567;DHT22;37657;53.182;5.638;2023-12-22T07:55:35;7.30;99.90
51567;DHT22;37657;53.182;5.638;2023-12-22T07:58:00;7.30;99.90
51567;DHT22;37657;53.182;5.638;2023-12-22T08:00:26;7.20;99.90
51567;DHT22;37657;53.182;5.638;2023-12-22T08:02:52;7.20;99.90
51567;DHT22;37657;53.182;5.638;2023-12-22T08:05:18;7.20;99.90
51567;DHT22;37657;53.182;5.638;2023-12-22T08:07:44;7.30;99.90
51567;DHT22;37657;53.182;5.638;2023-12-22T08:10:10;7.20;99.90
51567;DHT22;37657;53.182;5.638;2023-12-22T08:12:35;7.20;99.90
51567;DHT22;37657;53.182;5.638;2023-12-22T08:15:01;7.20;99.90
51567;DHT22;37657;53.182;5.638;2023-12-22T08:17:27;7.20;99.90
51567;DHT22;37657;53.182;5.638;2023-12-22T08:19:53;7.20;99.90
51567;DHT22;37657;53.182;5.638;2023-12-22T08:22:19;7.30;99.90
51567;DHT22;37657;53.182;5.638;2023-12-22T08:24:44;7.00;99.90
51567;DHT22;37657;53.182;5.638;2023-12-22T08:27:10;7.00;99.90
51567;DHT22;37657;53.182;5.638;2023-12-22T08:29:36;6.90;99.90
51567;DHT22;37657;53.182;5.638;2023-12-22T08:32:02;6.80;99.90
51567;DHT22;37657;53.182;5.638;2023-12-22T08:34:28;6.90;99.90
51567;DHT22;37657;53.182;5.638;2023-12-22T08:36:54;6.90;99.90
51567;DHT22;37657;53.182;5.638;2023-12-22T08:39:19;6.90;99.90
51567;DHT22;37657;53.182;5.638;2023-12-22T08:41:46;6.90;99.90
51567;DHT22;37657;53.182;5.638;2023-12-22T08:44:12;7.00;99.90
51567;DHT22;37657;53.182;5.638;2023-12-22T08:46:40;6.90;99.90
51567;DHT22;37657;53.182;5.638;2023-12-22T08:49:06;6.90;99.90
51567;DHT22;37657;53.182;5.638;2023-12-22T08:51:31;6.90;99.90
51567;DHT22;37657;53.182;5.638;2023-12-22T08:53:58;6.90;99.90
51567;DHT22;37657;53.182;5.638;2023-12-22T08:56:25;7.00;99.90
51567;DHT22;37657;53.182;5.638;2023-12-22T08:58:54;7.00;99.90
51567;DHT22;37657;53.182;5.638;2023-12-22T09:01:21;7.00;99.90
51567;DHT22;37657;53.182;5.638;2023-12-22T09:03:48;7.00;99.90
51567;DHT22;37657;53.182;5.638;2023-12-22T09:06:17;7.00;99.90
51567;DHT22;37657;53.182;5.638;2023-12-22T09:08:44;7.10;99.90
51567;DHT22;37657;53.182;5.638;2023-12-22T09:11:12;7.30;99.90
51567;DHT22;37657;53.182;5.638;2023-12-22T09:13:38;7.10;99.90
51567;DHT22;37657;53.182;5.638;2023-12-22T09:16:04;7.30;99.90
51567;DHT22;37657;53.182;5.638;2023-12-22T09:18:31;7.30;99.90
51567;DHT22;37657;53.182;5.638;2023-12-22T09:20:57;7.30;99.90
51567;DHT22;37657;53.182;5.638;2023-12-22T09:23:27;7.40;99.90
51567;DHT22;37657;53.182;5.638;2023-12-22T09:25:58;7.40;99.90
51567;DHT22;37657;53.182;5.638;2023-12-22T09:28:24;7.60;99.90
51567;DHT22;37657;53.182;5.638;2023-12-22T09:30:58;7.60;99.90
51567;DHT22;37657;53.182;5.638;2023-12-22T09:33:23;7.60;99.90
51567;DHT22;37657;53.182;5.638;2023-12-22T09:35:49;7.60;99.90
51567;DHT22;37657;53.182;5.638;2023-12-22T09:38:16;7.60;99.90
51567;DHT22;37657;53.182;5.638;2023-12-22T09:40:42;7.60;99.90
51567;DHT22;37657;53.182;5.638;2023-12-22T09:43:08;7.60;99.90
51567;DHT22;37657;53.182;5.638;2023-12-22T09:45:34;7.50;99.90
51567;DHT22;37657;53.182;5.638;2023-12-22T09:48:01;7.60;99.90
51567;DHT22;37657;53.182;5.638;2023-12-22T09:50:27;7.60;99.90
51567;DHT22;37657;53.182;5.638;2023-12-22T09:52:54;7.70;99.90
51567;DHT22;37657;53.182;5.638;2023-12-22T09:55:21;7.60;99.90
51567;DHT22;37657;53.182;5.638;2023-12-22T09:57:49;7.70;99.90
51567;DHT22;37657;53.182;5.638;2023-12-22T10:00:15;7.70;99.90
51567;DHT22;37657;53.182;5.638;2023-12-22T10:02:41;7.70;99.90
51567;DHT22;37657;53.182;5.638;2023-12-22T10:05:09;7.70;99.90
51567;DHT22;37657;53.182;5.638;2023-12-22T10:07:36;7.70;99.90
51567;DHT22;37657;53.182;5.638;2023-12-22T10:10:03;7.70;99.90
51567;DHT22;37657;53.182;5.638;2023-12-22T10:12:29;7.70;99.90
51567;DHT22;37657;53.182;5.638;2023-12-22T10:14:57;7.70;99.90
51567;DHT22;37657;53.182;5.638;2023-12-22T10:17:25;7.70;99.90
51567;DHT22;37657;53.182;5.638;2023-12-22T10:19:51;7.70;99.90
51567;DHT22;37657;53.182;5.638;2023-12-22T10:22:17;7.70;99.90
51567;DHT22;37657;53.182;5.638;2023-12-22T10:24:45;7.70;99.90
51567;DHT22;37657;53.182;5.638;2023-12-22T10:27:17;7.80;99.90
51567;DHT22;37657;53.182;5.638;2023-12-22T10:29:57;7.90;99.90
51567;DHT22;37657;53.182;5.638;2023-12-22T10:32:23;7.90;99.90
51567;DHT22;37657;53.182;5.638;2023-12-22T10:34:51;8.00;99.90
51567;DHT22;37657;53.182;5.638;2023-12-22T10:37:17;8.00;99.90
51567;DHT22;37657;53.182;5.638;2023-12-22T10:39:43;7.90;99.90
51567;DHT22;37657;53.182;5.638;2023-12-22T10:42:09;8.00;99.90
51567;DHT22;37657;53.182;5.638;2023-12-22T10:44:35;8.00;99.90
51567;DHT22;37657;53.182;5.638;2023-12-22T10:47:05;8.00;99.90
51567;DHT22;37657;53.182;5.638;2023-12-22T10:49:32;8.00;99.90
51567;DHT22;37657;53.182;5.638;2023-12-22T10:51:59;8.10;99.90
51567;DHT22;37657;53.182;5.638;2023-12-22T10:54:25;8.10;99.90
51567;DHT22;37657;53.182;5.638;2023-12-22T10:56:51;8.10;99.90
51567;DHT22;37657;53.182;5.638;2023-12-22T10:59:23;8.10;99.90
51567;DHT22;37657;53.182;5.638;2023-12-22T11:01:51;8.20;99.90
51567;DHT22;37657;53.182;5.638;2023-12-22T11:04:20;8.30;99.90
51567;DHT22;37657;53.182;5.638;2023-12-22T11:06:47;8.20;99.90
51567;DHT22;37657;53.182;5.638;2023-12-22T11:09:16;8.20;99.90
51567;DHT22;37657;53.182;5.638;2023-12-22T11:11:42;8.20;99.90
51567;DHT22;37657;53.182;5.638;2023-12-22T11:14:08;8.30;99.90
51567;DHT22;37657;53.182;5.638;2023-12-22T11:16:35;8.20;99.90
51567;DHT22;37657;53.182;5.638;2023-12-22T11:19:02;8.30;99.90
51567;DHT22;37657;53.182;5.638;2023-12-22T11:21:29;8.30;99.90
51567;DHT22;37657;53.182;5.638;2023-12-22T11:23:55;8.30;99.90
51567;DHT22;37657;53.182;5.638;2023-12-22T11:26:23;8.40;99.90
51567;DHT22;37657;53.182;5.638;2023-12-22T11:28:50;8.30;99.90
51567;DHT22;37657;53.182;5.638;2023-12-22T11:31:20;8.30;99.90
51567;DHT22;37657;53.182;5.638;2023-12-22T11:33:47;8.30;99.90
51567;DHT22;37657;53.182;5.638;2023-12-22T11:36:14;8.30;99.90
51567;DHT22;37657;53.182;5.638;2023-12-22T11:38:41;8.30;99.90
51567;DHT22;37657;53.182;5.638;2023-12-22T11:41:10;8.40;99.90
51567;DHT22;37657;53.182;5.638;2023-12-22T11:43:38;8.30;99.90
51567;DHT22;37657;53.182;5.638;2023-12-22T11:46:04;8.40;99.90
51567;DHT22;37657;53.182;5.638;2023-12-22T11:48:30;8.30;99.90
51567;DHT22;37657;53.182;5.638;2023-12-22T11:50:57;8.40;99.90
51567;DHT22;37657;53.182;5.638;2023-12-22T11:53:24;8.30;99.90
51567;DHT22;37657;53.182;5.638;2023-12-22T11:56:06;8.40;99.90
51567;DHT22;37657;53.182;5.638;2023-12-22T12:01:03;8.40;99.90
51567;DHT22;37657;53.182;5.638;2023-12-22T12:03:30;8.30;99.90
51567;DHT22;37657;53.182;5.638;2023-12-22T12:08:37;8.30;99.90
51567;DHT22;37657;53.182;5.638;2023-12-22T12:11:02;8.30;99.90
51567;DHT22;37657;53.182;5.638;2023-12-22T12:13:31;8.20;99.90
51567;DHT22;37657;53.182;5.638;2023-12-22T12:15:58;8.20;99.90
51567;DHT22;37657;53.182;5.638;2023-12-22T12:18:28;8.30;99.90
51567;DHT22;37657;53.182;5.638;2023-12-22T12:20:54;8.30;99.90
51567;DHT22;37657;53.182;5.638;2023-12-22T12:23:20;8.20;99.90
51567;DHT22;37657;53.182;5.638;2023-12-22T12:25:48;8.30;99.90
51567;DHT22;37657;53.182;5.638;2023-12-22T12:28:15;8.20;99.90
51567;DHT22;37657;53.182;5.638;2023-12-22T12:30:44;8.30;99.90
51567;DHT22;37657;53.182;5.638;2023-12-22T12:33:13;8.30;99.90
51567;DHT22;37657;53.182;5.638;2023-12-22T12:35:40;8.20;99.90
51567;DHT22;37657;53.182;5.638;2023-12-22T12:38:06;8.30;99.90
51567;DHT22;37657;53.182;5.638;2023-12-22T12:40:37;8.30;99.90
51567;DHT22;37657;53.182;5.638;2023-12-22T12:43:05;8.30;99.90
51567;DHT22;37657;53.182;5.638;2023-12-22T12:45:31;8.20;99.90
51567;DHT22;37657;53.182;5.638;2023-12-22T12:47:58;8.20;99.90
51567;DHT22;37657;53.182;5.638;2023-12-22T12:50:25;8.20;99.90
51567;DHT22;37657;53.182;5.638;2023-12-22T12:52:55;8.20;99.90
51567;DHT22;37657;53.182;5.638;2023-12-22T12:55:22;8.20;99.90
51567;DHT22;37657;53.182;5.638;2023-12-22T12:57:55;8.20;99.90
51567;DHT22;37657;53.182;5.638;2023-12-22T13:00:27;8.10;99.90
51567;DHT22;37657;53.182;5.638;2023-12-22T13:02:59;8.00;99.90
51567;DHT22;37657;53.182;5.638;2023-12-22T13:05:25;7.90;99.90
51567;DHT22;37657;53.182;5.638;2023-12-22T13:07:51;8.00;99.90
51567;DHT22;37657;53.182;5.638;2023-12-22T13:10:24;8.00;99.90
51567;DHT22;37657;53.182;5.638;2023-12-22T13:12:50;8.00;99.90
51567;DHT22;37657;53.182;5.638;2023-12-22T13:15:16;7.90;99.90
51567;DHT22;37657;53.182;5.638;2023-12-22T13:17:43;7.90;99.90
51567;DHT22;37657;53.182;5.638;2023-12-22T13:20:09;7.90;99.90
51567;DHT22;37657;53.182;5.638;2023-12-22T13:22:35;7.80;99.90
51567;DHT22;37657;53.182;5.638;2023-12-22T13:25:01;7.90;99.90
51567;DHT22;37657;53.182;5.638;2023-12-22T13:27:27;7.90;99.90
51567;DHT22;37657;53.182;5.638;2023-12-22T13:29:52;7.90;99.90
51567;DHT22;37657;53.182;5.638;2023-12-22T13:32:20;8.10;99.90
51567;DHT22;37657;53.182;5.638;2023-12-22T13:34:53;7.90;99.90
51567;DHT22;37657;53.182;5.638;2023-12-22T13:37:20;7.80;99.90
51567;DHT22;37657;53.182;5.638;2023-12-22T13:39:46;7.80;99.90
51567;DHT22;37657;53.182;5.638;2023-12-22T13:42:19;7.70;99.90
51567;DHT22;37657;53.182;5.638;2023-12-22T13:44:47;7.60;99.90
51567;DHT22;37657;53.182;5.638;2023-12-22T13:47:15;7.40;99.90
51567;DHT22;37657;53.182;5.638;2023-12-22T13:49:42;7.30;99.90
51567;DHT22;37657;53.182;5.638;2023-12-22T13:52:08;7.20;99.90
51567;DHT22;37657;53.182;5.638;2023-12-22T13:54:49;7.40;99.90
51567;DHT22;37657;53.182;5.638;2023-12-22T13:57:21;7.30;99.90
51567;DHT22;37657;53.182;5.638;2023-12-22T13:59:49;7.40;99.90
51567;DHT22;37657;53.182;5.638;2023-12-22T14:02:15;7.50;99.90
51567;DHT22;37657;53.182;5.638;2023-12-22T14:04:41;7.50;99.90
51567;DHT22;37657;53.182;5.638;2023-12-22T14:07:06;7.50;99.90
51567;DHT22;37657;53.182;5.638;2023-12-22T14:09:32;7.50;99.90
51567;DHT22;37657;53.182;5.638;2023-12-22T14:11:59;7.40;99.90
51567;DHT22;37657;53.182;5.638;2023-12-22T14:14:25;7.30;99.90
51567;DHT22;37657;53.182;5.638;2023-12-22T14:16:50;7.50;99.90
51567;DHT22;37657;53.182;5.638;2023-12-22T14:19:16;7.30;99.90
51567;DHT22;37657;53.182;5.638;2023-12-22T14:21:42;7.30;99.90
51567;DHT22;37657;53.182;5.638;2023-12-22T14:24:07;7.50;99.90
51567;DHT22;37657;53.182;5.638;2023-12-22T14:26:33;7.40;99.90
51567;DHT22;37657;53.182;5.638;2023-12-22T14:29:14;7.50;99.90
51567;DHT22;37657;53.182;5.638;2023-12-22T14:31:39;7.60;99.90
51567;DHT22;37657;53.182;5.638;2023-12-22T14:34:05;7.60;99.90
51567;DHT22;37657;53.182;5.638;2023-12-22T14:36:30;7.60;99.90
51567;DHT22;37657;53.182;5.638;2023-12-22T14:38:56;7.50;99.90
51567;DHT22;37657;53.182;5.638;2023-12-22T14:41:22;7.50;99.90
51567;DHT22;37657;53.182;5.638;2023-12-22T14:43:47;7.70;99.90
51567;DHT22;37657;53.182;5.638;2023-12-22T14:46:13;7.70;99.90
51567;DHT22;37657;53.182;5.638;2023-12-22T14:48:38;7.80;99.90
51567;DHT22;37657;53.182;5.638;2023-12-22T14:51:04;7.70;99.90
51567;DHT22;37657;53.182;5.638;2023-12-22T14:53:31;7.70;99.90
51567;DHT22;37657;53.182;5.638;2023-12-22T14:55:57;7.80;99.90
51567;DHT22;37657;53.182;5.638;2023-12-22T14:58:24;7.70;99.90
51567;DHT22;37657;53.182;5.638;2023-12-22T15:00:50;7.80;99.90
51567;DHT22;37657;53.182;5.638;2023-12-22T15:03:15;7.80;99.90
51567;DHT22;37657;53.182;5.638;2023-12-22T15:05:41;7.90;99.90
51567;DHT22;37657;53.182;5.638;2023-12-22T15:08:07;7.80;99.90
51567;DHT22;37657;53.182;5.638;2023-12-22T15:10:33;7.90;99.90
51567;DHT22;37657;53.182;5.638;2023-12-22T15:12:58;7.90;99.90
51567;DHT22;37657;53.182;5.638;2023-12-22T15:15:24;7.90;99.90
51567;DHT22;37657;53.182;5.638;2023-12-22T15:17:49;7.90;99.90
51567;DHT22;37657;53.182;5.638;2023-12-22T15:20:15;7.90;99.90
51567;DHT22;37657;53.182;5.638;2023-12-22T15:22:41;7.90;99.90
51567;DHT22;37657;53.182;5.638;2023-12-22T15:25:06;7.90;99.90
51567;DHT22;37657;53.182;5.638;2023-12-22T15:27:32;7.90;99.90
51567;DHT22;37657;53.182;5.638;2023-12-22T15:29:58;7.90;99.90
51567;DHT22;37657;53.182;5.638;2023-12-22T15:32:23;7.90;99.90
51567;DHT22;37657;53.182;5.638;2023-12-22T15:34:49;8.00;99.90
51567;DHT22;37657;53.182;5.638;2023-12-22T15:37:15;8.00;99.90
51567;DHT22;37657;53.182;5.638;2023-12-22T15:39:40;8.00;99.90
51567;DHT22;37657;53.182;5.638;2023-12-22T15:42:06;8.00;99.90
51567;DHT22;37657;53.182;5.638;2023-12-22T15:44:32;8.00;99.90
51567;DHT22;37657;53.182;5.638;2023-12-22T15:46:57;8.10;99.90
51567;DHT22;37657;53.182;5.638;2023-12-22T15:49:23;8.10;99.90
51567;DHT22;37657;53.182;5.638;2023-12-22T15:51:48;8.20;99.90